createdAt,value
2022-08-05T00:00:52.238Z,19.40
2022-08-05T00:01:52.241Z,19.49
2022-08-05T00:02:52.419Z,19.45
2022-08-05T00:03:52.106Z,19.39
2022-08-05T00:04:55.516Z,19.46
2022-08-05T00:06:04.801Z,19.42
2022-08-05T00:06:53.080Z,19.39
2022-08-05T00:08:00.351Z,19.38
2022-08-05T00:08:53.174Z,19.43
2022-08-05T00:09:52.109Z,19.40
2022-08-05T00:10:52.019Z,19.40
2022-08-05T00:11:56.142Z,19.38
2022-08-05T00:12:56.734Z,19.34
2022-08-05T00:13:53.128Z,19.34
2022-08-05T00:14:52.033Z,19.39
2022-08-05T00:15:57.685Z,19.42
2022-08-05T00:16:54.036Z,19.42
2022-08-05T00:17:51.943Z,19.32
2022-08-05T00:18:51.937Z,19.35
2022-08-05T00:20:02.552Z,19.42
2022-08-05T00:20:52.922Z,19.34
2022-08-05T00:21:51.905Z,19.24
2022-08-05T00:22:55.245Z,19.31
2022-08-05T00:24:09.859Z,19.17
2022-08-05T00:24:55.072Z,19.20
2022-08-05T00:25:51.848Z,19.17
2022-08-05T00:26:52.885Z,19.13
2022-08-05T00:27:51.906Z,19.27
2022-08-05T00:28:51.932Z,19.16
2022-08-05T00:29:51.810Z,19.15
2022-08-05T00:30:52.041Z,19.10
2022-08-05T00:32:11.217Z,19.15
2022-08-05T00:32:52.772Z,19.23
2022-08-05T00:34:54.153Z,19.16
2022-08-05T00:35:05.391Z,19.20
2022-08-05T00:36:16.062Z,19.12
2022-08-05T00:37:11.882Z,19.09
2022-08-05T00:37:54.141Z,19.06
2022-08-05T00:38:51.719Z,19.09
2022-08-05T00:39:58.829Z,19.06
2022-08-05T00:40:53.419Z,18.90
2022-08-05T00:41:55.502Z,18.82
2022-08-05T00:42:51.670Z,18.94
2022-08-05T00:43:51.657Z,19.01
2022-08-05T00:44:51.651Z,19.02
2022-08-05T00:45:51.659Z,18.93
2022-08-05T00:46:54.237Z,18.97
2022-08-05T00:47:56.381Z,18.91
2022-08-05T00:48:52.663Z,18.94
2022-08-05T00:49:51.949Z,18.87
2022-08-05T00:50:51.678Z,18.94
2022-08-05T00:51:52.371Z,18.97
2022-08-05T00:52:51.579Z,19.06
2022-08-05T00:54:02.412Z,19.06
2022-08-05T00:54:52.544Z,19.09
2022-08-05T00:55:51.565Z,19.12
2022-08-05T00:56:51.948Z,19.06
2022-08-05T00:57:57.890Z,19.05
2022-08-05T00:58:52.523Z,19.20
2022-08-05T00:59:51.499Z,19.15
2022-08-05T01:00:51.509Z,19.07
2022-08-05T01:01:51.990Z,19.16
2022-08-05T01:02:51.455Z,19.10
2022-08-05T01:03:51.446Z,19.15
2022-08-05T01:04:51.434Z,19.13
2022-08-05T01:05:51.603Z,19.10
2022-08-05T01:06:51.726Z,19.16
2022-08-05T01:08:39.169Z,19.17
2022-08-05T01:08:52.413Z,19.17
2022-08-05T01:09:55.566Z,19.20
2022-08-05T01:10:52.195Z,19.25
2022-08-05T01:11:51.762Z,19.16
2022-08-05T01:13:05.105Z,19.23
2022-08-05T01:13:57.302Z,19.21
2022-08-05T01:14:52.315Z,19.25
2022-08-05T01:15:51.304Z,19.16
2022-08-05T01:16:52.337Z,19.28
2022-08-05T01:17:53.626Z,19.28
2022-08-05T01:18:56.223Z,19.30
2022-08-05T01:20:01.265Z,19.25
2022-08-05T01:20:52.276Z,19.31
2022-08-05T01:21:51.237Z,19.34
2022-08-05T01:22:51.240Z,19.34
2022-08-05T01:23:53.143Z,19.30
2022-08-05T01:24:51.311Z,19.38
2022-08-05T01:25:52.387Z,19.35
2022-08-05T01:26:51.208Z,19.38
2022-08-05T01:27:55.739Z,19.32
2022-08-05T01:28:51.238Z,19.32
2022-08-05T01:29:51.787Z,19.32
2022-08-05T01:30:53.831Z,19.42
2022-08-05T01:31:51.139Z,19.43
2022-08-05T01:32:51.136Z,19.46
2022-08-05T01:33:53.543Z,19.38
2022-08-05T01:34:51.119Z,19.40
2022-08-05T01:35:53.508Z,19.42
2022-08-05T01:36:51.138Z,19.31
2022-08-05T01:37:51.132Z,19.45
2022-08-05T01:38:51.058Z,19.34
2022-08-05T01:39:51.097Z,19.32
2022-08-05T01:40:51.053Z,19.31
2022-08-05T01:41:51.017Z,19.34
2022-08-05T01:42:51.104Z,19.34
2022-08-05T01:43:51.019Z,19.34
2022-08-05T01:44:53.851Z,19.31
2022-08-05T01:45:56.148Z,19.28
2022-08-05T01:46:51.978Z,19.32
2022-08-05T01:47:54.477Z,19.30
2022-08-05T01:48:50.945Z,19.21
2022-08-05T01:50:01.862Z,19.27
2022-08-05T01:50:51.937Z,19.16
2022-08-05T01:51:51.924Z,19.23
2022-08-05T01:52:50.903Z,19.17
2022-08-05T01:53:57.979Z,19.17
2022-08-05T01:54:52.037Z,19.17
2022-08-05T01:55:50.885Z,19.21
2022-08-05T01:58:10.811Z,19.20
2022-08-05T01:58:12.975Z,19.20
2022-08-05T01:58:52.215Z,19.12
2022-08-05T01:59:50.832Z,19.12
2022-08-05T02:00:50.815Z,19.12
2022-08-05T02:01:50.854Z,19.07
2022-08-05T02:02:54.316Z,19.06
2022-08-05T02:03:50.770Z,19.01
2022-08-05T02:04:50.773Z,19.01
2022-08-05T02:05:50.827Z,19.06
2022-08-05T02:06:50.763Z,19.02
2022-08-05T02:08:00.055Z,19.02
2022-08-05T02:08:57.920Z,19.09
2022-08-05T02:09:51.720Z,19.07
2022-08-05T02:10:50.744Z,19.07
2022-08-05T02:11:52.293Z,18.99
2022-08-05T02:12:50.988Z,19.06
2022-08-05T02:13:53.696Z,19.07
2022-08-05T02:14:50.669Z,19.09
2022-08-05T02:15:50.720Z,19.13
2022-08-05T02:16:52.984Z,19.06
2022-08-05T02:18:30.758Z,19.01
2022-08-05T02:18:51.650Z,18.94
2022-08-05T02:19:50.604Z,19.06
2022-08-05T02:20:50.632Z,19.06
2022-08-05T02:21:50.589Z,19.06
2022-08-05T02:22:50.572Z,19.05
2022-08-05T02:23:50.587Z,18.94
2022-08-05T02:24:51.332Z,19.06
2022-08-05T02:25:50.715Z,19.05
2022-08-05T02:26:53.827Z,18.93
2022-08-05T02:27:58.516Z,19.02
2022-08-05T02:28:51.511Z,19.06
2022-08-05T02:30:00.027Z,19.01
2022-08-05T02:30:54.228Z,18.97
2022-08-05T02:31:51.469Z,18.94
2022-08-05T02:32:50.497Z,19.07
2022-08-05T02:33:57.446Z,19.02
2022-08-05T02:34:54.925Z,18.93
2022-08-05T02:35:57.489Z,18.96
2022-08-05T02:36:51.426Z,19.01
2022-08-05T02:37:53.998Z,18.90
2022-08-05T02:38:53.356Z,18.93
2022-08-05T02:39:51.657Z,18.93
2022-08-05T02:40:50.397Z,18.96
2022-08-05T02:42:00.447Z,18.94
2022-08-05T02:42:53.097Z,18.87
2022-08-05T02:44:05.932Z,18.94
2022-08-05T02:44:51.343Z,18.91
2022-08-05T02:45:52.556Z,18.93
2022-08-05T02:46:59.825Z,18.86
2022-08-05T02:48:06.769Z,18.78
2022-08-05T02:48:51.292Z,18.79
2022-08-05T02:49:50.278Z,18.76
2022-08-05T02:50:50.287Z,18.82
2022-08-05T02:52:02.784Z,18.83
2022-08-05T02:52:51.294Z,18.74
2022-08-05T02:53:50.232Z,18.65
2022-08-05T02:54:50.909Z,18.72
2022-08-05T02:55:54.857Z,18.60
2022-08-05T02:56:51.197Z,18.60
2022-08-05T02:58:10.736Z,18.59
2022-08-05T02:58:52.606Z,18.68
2022-08-05T02:59:51.974Z,18.60
2022-08-05T03:00:50.199Z,18.56
2022-08-05T03:01:50.221Z,18.53
2022-08-05T03:02:50.204Z,18.56
2022-08-05T03:04:08.831Z,18.47
2022-08-05T03:04:53.120Z,18.51
2022-08-05T03:06:53.818Z,18.49
2022-08-05T03:06:55.097Z,18.51
2022-08-05T03:08:06.795Z,18.44
2022-08-05T03:08:52.293Z,18.50
2022-08-05T03:09:51.976Z,18.44
2022-08-05T03:11:01.311Z,18.47
2022-08-05T03:11:56.715Z,18.41
2022-08-05T03:12:51.770Z,18.36
2022-08-05T03:13:52.130Z,18.42
2022-08-05T03:14:50.997Z,18.34
2022-08-05T03:15:49.996Z,18.39
2022-08-05T03:16:51.815Z,18.34
2022-08-05T03:17:50.152Z,18.26
2022-08-05T03:18:49.974Z,18.20
2022-08-05T03:19:50.032Z,18.26
2022-08-05T03:20:50.398Z,18.29
2022-08-05T03:21:50.084Z,18.32
2022-08-05T03:22:50.621Z,18.31
2022-08-05T03:23:49.898Z,18.26
2022-08-05T03:24:51.059Z,18.32
2022-08-05T03:26:04.897Z,18.31
2022-08-05T03:26:50.910Z,18.31
2022-08-05T03:27:58.914Z,18.36
2022-08-05T03:28:50.932Z,18.31
2022-08-05T03:30:07.827Z,18.32
2022-08-05T03:30:51.037Z,18.26
2022-08-05T03:31:55.687Z,18.31
2022-08-05T03:32:50.952Z,18.35
2022-08-05T03:33:52.821Z,18.36
2022-08-05T03:34:50.425Z,18.36
2022-08-05T03:35:49.870Z,18.39
2022-08-05T03:36:49.764Z,18.35
2022-08-05T03:37:49.805Z,18.35
2022-08-05T03:38:54.204Z,18.42
2022-08-05T03:39:58.767Z,18.35
2022-08-05T03:40:50.780Z,18.35
2022-08-05T03:41:49.714Z,18.34
2022-08-05T03:42:52.137Z,18.31
2022-08-05T03:44:08.305Z,18.34
2022-08-05T03:44:50.746Z,18.29
2022-08-05T03:45:57.547Z,18.34
2022-08-05T03:46:50.691Z,18.29
2022-08-05T03:47:49.648Z,18.34
2022-08-05T03:48:49.637Z,18.31
2022-08-05T03:49:51.282Z,18.29
2022-08-05T03:50:49.611Z,18.34
2022-08-05T03:52:38.380Z,18.23
2022-08-05T03:55:50.144Z,18.26
2022-08-05T03:55:51.934Z,18.13
2022-08-05T03:55:51.937Z,18.19
2022-08-05T03:56:11.424Z,18.09
2022-08-05T03:56:50.565Z,18.13
2022-08-05T03:57:49.821Z,18.11
2022-08-05T03:58:51.140Z,18.10
2022-08-05T03:59:54.894Z,18.13
2022-08-05T04:00:51.701Z,18.21
2022-08-05T04:01:49.566Z,18.10
2022-08-05T04:02:57.588Z,18.20
2022-08-05T04:04:08.923Z,18.13
2022-08-05T04:04:50.456Z,18.19
2022-08-05T04:05:49.454Z,18.25
2022-08-05T04:06:51.134Z,18.17
2022-08-05T04:07:58.062Z,18.11
2022-08-05T04:08:50.449Z,18.14
2022-08-05T04:09:53.795Z,18.21
2022-08-05T04:10:49.390Z,18.10
2022-08-05T04:11:52.455Z,18.19
2022-08-05T04:12:49.375Z,18.14
2022-08-05T04:13:53.461Z,18.09
2022-08-05T04:14:49.348Z,18.21
2022-08-05T04:16:02.710Z,18.13
2022-08-05T04:16:50.317Z,18.13
2022-08-05T04:17:57.145Z,18.23
2022-08-05T04:18:54.318Z,18.13
2022-08-05T04:19:54.252Z,18.10
2022-08-05T04:20:50.272Z,18.19
2022-08-05T04:22:09.131Z,18.13
2022-08-05T04:22:50.269Z,18.25
2022-08-05T04:24:05.256Z,18.13
2022-08-05T04:24:52.740Z,18.17
2022-08-05T04:26:00.390Z,18.16
2022-08-05T04:26:50.238Z,18.14
2022-08-05T04:27:57.589Z,18.02
2022-08-05T04:28:51.328Z,18.14
2022-08-05T04:29:49.179Z,18.11
2022-08-05T04:30:49.196Z,18.16
2022-08-05T04:31:49.677Z,18.10
2022-08-05T04:32:49.176Z,18.13
2022-08-05T04:34:17.510Z,18.11
2022-08-05T04:34:50.209Z,18.11
2022-08-05T04:36:16.177Z,18.09
2022-08-05T04:36:50.543Z,18.10
2022-08-05T04:38:02.976Z,18.16
2022-08-05T04:38:51.018Z,18.23
2022-08-05T04:39:52.932Z,18.17
2022-08-05T04:40:50.840Z,18.14
2022-08-05T04:41:50.911Z,18.17
2022-08-05T04:42:49.056Z,18.20
2022-08-05T04:43:52.116Z,18.13
2022-08-05T04:44:49.013Z,18.10
2022-08-05T04:45:55.009Z,18.14
2022-08-05T04:46:49.985Z,18.13
2022-08-05T04:47:48.985Z,18.19
2022-08-05T04:48:48.975Z,18.13
2022-08-05T04:50:03.013Z,18.10
2022-08-05T04:51:03.812Z,18.02
2022-08-05T04:51:49.951Z,17.95
2022-08-05T04:52:49.942Z,17.95
2022-08-05T04:53:48.927Z,17.86
2022-08-05T04:54:49.340Z,17.87
2022-08-05T04:56:14.246Z,17.94
2022-08-05T04:56:49.886Z,17.87
2022-08-05T04:57:54.103Z,17.98
2022-08-05T04:58:49.867Z,18.04
2022-08-05T04:59:48.975Z,18.05
2022-08-05T05:00:50.706Z,18.02
2022-08-05T05:02:35.356Z,18.14
2022-08-05T05:02:49.915Z,18.42
2022-08-05T05:03:48.818Z,18.75
2022-08-05T05:04:49.884Z,19.10
2022-08-05T05:06:39.070Z,19.30
2022-08-05T05:06:57.399Z,19.58
2022-08-05T05:07:52.971Z,19.97
2022-08-05T05:08:50.167Z,20.16
2022-08-05T05:09:48.750Z,20.31
2022-08-05T05:10:56.331Z,20.31
2022-08-05T05:11:55.693Z,20.58
2022-08-05T05:12:50.702Z,20.71
2022-08-05T05:13:48.716Z,20.73
2022-08-05T05:14:50.719Z,20.81
2022-08-05T05:15:56.689Z,20.91
2022-08-05T05:16:50.570Z,21.16
2022-08-05T05:17:56.974Z,20.98
2022-08-05T05:19:16.554Z,20.63
2022-08-05T05:19:49.639Z,20.73
2022-08-05T05:20:49.785Z,20.97
2022-08-05T05:21:48.723Z,21.36
2022-08-05T05:22:49.688Z,21.58
2022-08-05T05:24:03.763Z,21.66
2022-08-05T05:24:57.572Z,21.67
2022-08-05T05:25:49.587Z,21.93
2022-08-05T05:26:48.568Z,22.23
2022-08-05T05:27:53.963Z,22.33
2022-08-05T05:28:49.555Z,22.48
2022-08-05T05:30:04.175Z,22.59
2022-08-05T05:30:49.906Z,22.39
2022-08-05T05:31:48.532Z,22.24
2022-08-05T05:32:48.739Z,22.39
2022-08-05T05:33:59.193Z,22.51
2022-08-05T05:34:49.482Z,22.46
2022-08-05T05:35:48.590Z,21.91
2022-08-05T05:36:48.457Z,21.99
2022-08-05T05:37:59.974Z,22.35
2022-08-05T05:38:49.437Z,22.35
2022-08-05T05:39:48.510Z,22.64
2022-08-05T05:40:51.433Z,22.94
2022-08-05T05:41:54.024Z,22.81
2022-08-05T05:42:49.375Z,22.41
2022-08-05T05:43:57.397Z,22.01
2022-08-05T05:44:49.355Z,21.37
2022-08-05T05:45:48.569Z,21.11
2022-08-05T05:46:48.330Z,21.16
2022-08-05T05:48:06.178Z,21.28
2022-08-05T05:48:49.317Z,21.27
2022-08-05T05:49:56.473Z,21.61
2022-08-05T05:50:49.304Z,21.61
2022-08-05T05:51:49.612Z,21.36
2022-08-05T05:52:48.271Z,21.12
2022-08-05T05:53:57.193Z,21.05
2022-08-05T05:54:50.886Z,20.96
2022-08-05T05:55:51.892Z,20.88
2022-08-05T05:56:49.253Z,21.00
2022-08-05T05:57:52.779Z,20.83
2022-08-05T05:58:48.222Z,20.83
2022-08-05T05:59:48.948Z,21.22
2022-08-05T06:00:48.185Z,21.81
2022-08-05T06:01:57.618Z,22.17
2022-08-05T06:02:49.166Z,22.44
2022-08-05T06:04:00.584Z,22.46
2022-08-05T06:04:49.485Z,22.69
2022-08-05T06:05:53.993Z,23.03
2022-08-05T06:06:49.191Z,23.12
2022-08-05T06:08:01.272Z,23.07
2022-08-05T06:08:49.435Z,23.23
2022-08-05T06:10:00.282Z,22.91
2022-08-05T06:10:52.718Z,22.84
2022-08-05T06:11:59.536Z,22.64
2022-08-05T06:12:49.057Z,22.81
2022-08-05T06:13:53.743Z,22.97
2022-08-05T06:14:49.032Z,22.79
2022-08-05T06:16:28.473Z,22.81
2022-08-05T06:16:49.030Z,22.96
2022-08-05T06:17:53.641Z,22.72
2022-08-05T06:18:49.111Z,22.86
2022-08-05T06:19:56.377Z,23.07
2022-08-05T06:20:49.059Z,23.26
2022-08-05T06:21:49.724Z,22.54
2022-08-05T06:22:47.965Z,22.29
2022-08-05T06:23:49.815Z,21.81
2022-08-05T06:24:48.811Z,22.04
2022-08-05T06:26:12.812Z,22.46
2022-08-05T06:26:52.231Z,22.84
2022-08-05T06:28:12.440Z,22.94
2022-08-05T06:28:48.883Z,22.89
2022-08-05T06:30:04.297Z,23.14
2022-08-05T06:30:48.868Z,23.09
2022-08-05T06:31:47.864Z,22.97
2022-08-05T06:32:47.855Z,22.70
2022-08-05T06:34:06.889Z,22.44
2022-08-05T06:34:53.533Z,22.36
2022-08-05T06:36:07.370Z,22.19
2022-08-05T06:36:57.454Z,22.35
2022-08-05T06:37:57.616Z,22.05
2022-08-05T06:38:48.796Z,21.83
2022-08-05T06:39:47.816Z,21.68
2022-08-05T06:40:47.746Z,21.64
2022-08-05T06:41:47.758Z,21.99
2022-08-05T06:42:47.737Z,22.20
2022-08-05T06:43:58.903Z,22.41
2022-08-05T06:44:49.212Z,22.31
2022-08-05T06:46:03.820Z,22.17
2022-08-05T06:46:50.966Z,22.12
2022-08-05T06:48:36.023Z,22.08
2022-08-05T06:48:56.370Z,22.20
2022-08-05T06:50:00.229Z,22.14
2022-08-05T06:50:49.979Z,21.86
2022-08-05T06:51:47.631Z,21.70
2022-08-05T06:53:03.502Z,22.21
2022-08-05T06:53:53.464Z,22.09
2022-08-05T06:54:48.748Z,21.90
2022-08-05T06:55:47.657Z,21.71
2022-08-05T06:56:55.127Z,21.58
2022-08-05T06:58:03.108Z,21.55
2022-08-05T06:58:48.605Z,21.58
2022-08-05T06:59:54.998Z,21.64
2022-08-05T07:00:48.567Z,21.38
2022-08-05T07:01:47.550Z,21.40
2022-08-05T07:02:48.519Z,21.36
2022-08-05T07:03:48.497Z,21.43
2022-08-05T07:04:47.525Z,21.33
2022-08-05T07:05:47.518Z,21.22
2022-08-05T07:06:50.489Z,21.13
2022-08-05T07:07:47.448Z,21.12
2022-08-05T07:08:54.798Z,21.00
2022-08-05T07:09:48.446Z,20.91
2022-08-05T07:10:53.124Z,20.58
2022-08-05T07:11:51.590Z,20.37
2022-08-05T07:12:49.115Z,20.44
2022-08-05T07:13:57.896Z,20.48
2022-08-05T07:14:48.509Z,20.57
2022-08-05T07:16:00.903Z,20.76
2022-08-05T07:17:59.793Z,21.09
2022-08-05T07:18:01.836Z,21.26
2022-08-05T07:18:48.364Z,21.56
2022-08-05T07:20:48.315Z,21.66
2022-08-05T07:22:00.510Z,21.75
2022-08-05T07:22:48.309Z,21.58
2022-08-05T07:23:49.823Z,21.63
2022-08-05T07:24:53.554Z,21.58
2022-08-05T07:25:54.920Z,21.53
2022-08-05T07:26:48.357Z,21.46
2022-08-05T07:27:57.337Z,21.52
2022-08-05T07:28:48.271Z,21.48
2022-08-05T07:30:24.671Z,21.45
2022-08-05T07:30:50.320Z,21.55
2022-08-05T07:31:54.394Z,21.86
2022-08-05T07:32:51.037Z,21.90
2022-08-05T07:33:48.261Z,22.01
2022-08-05T07:34:47.184Z,21.56
2022-08-05T07:36:05.113Z,21.46
2022-08-05T07:36:48.153Z,21.26
2022-08-05T07:37:47.312Z,21.26
2022-08-05T07:38:47.143Z,21.12
2022-08-05T07:40:04.139Z,20.97
2022-08-05T07:40:48.211Z,20.82
2022-08-05T07:42:13.563Z,20.83
2022-08-05T07:42:48.078Z,21.08
2022-08-05T07:43:47.065Z,20.93
2022-08-05T07:44:47.134Z,20.91
2022-08-05T07:45:57.541Z,20.81
2022-08-05T07:46:48.433Z,20.85
2022-08-05T07:47:47.025Z,20.96
2022-08-05T07:49:02.269Z,20.96
2022-08-05T07:49:54.308Z,21.19
2022-08-05T07:50:48.065Z,21.18
2022-08-05T07:51:54.572Z,21.21
2022-08-05T07:52:47.968Z,21.51
2022-08-05T07:53:50.291Z,21.85
2022-08-05T07:54:49.098Z,22.26
2022-08-05T07:56:06.544Z,22.57
2022-08-05T07:57:01.793Z,22.91
2022-08-05T07:58:02.125Z,22.70
2022-08-05T07:58:58.685Z,22.97
2022-08-05T07:59:48.901Z,23.11
2022-08-05T08:00:46.963Z,23.25
2022-08-05T08:01:52.235Z,23.56
2022-08-05T08:03:14.655Z,23.21
2022-08-05T08:03:47.847Z,23.38
2022-08-05T08:04:46.935Z,23.47
2022-08-05T08:05:49.703Z,23.75
2022-08-05T08:06:46.815Z,23.81
2022-08-05T08:08:00.064Z,23.89
2022-08-05T08:08:47.895Z,23.89
2022-08-05T08:09:46.795Z,23.86
2022-08-05T08:10:48.821Z,24.44
2022-08-05T08:11:49.452Z,24.53
2022-08-05T08:12:49.506Z,24.19
2022-08-05T08:13:49.538Z,24.04
2022-08-05T08:14:47.782Z,23.97
2022-08-05T08:16:49.709Z,24.15
2022-08-05T08:16:51.080Z,24.23
2022-08-05T08:17:52.813Z,24.26
2022-08-05T08:18:50.160Z,24.16
2022-08-05T08:20:43.275Z,24.26
2022-08-05T08:21:02.179Z,24.52
2022-08-05T08:21:47.673Z,24.45
2022-08-05T08:22:46.692Z,24.66
2022-08-05T08:24:01.456Z,24.89
2022-08-05T08:24:51.351Z,25.14
2022-08-05T08:26:00.560Z,25.36
2022-08-05T08:26:47.598Z,25.30
2022-08-05T08:27:47.973Z,25.16
2022-08-05T08:28:59.511Z,24.71
2022-08-05T08:30:05.343Z,24.53
2022-08-05T08:30:49.957Z,24.41
2022-08-05T08:31:46.556Z,24.98
2022-08-05T08:32:46.581Z,24.90
2022-08-05T08:33:46.839Z,25.38
2022-08-05T08:34:46.623Z,25.20
2022-08-05T08:35:52.828Z,25.56
2022-08-05T08:36:52.457Z,25.98
2022-08-05T08:37:47.499Z,25.57
2022-08-05T08:38:53.113Z,25.81
2022-08-05T08:39:49.644Z,26.01
2022-08-05T08:40:51.702Z,26.31
2022-08-05T08:41:52.200Z,25.91
2022-08-05T08:42:51.059Z,25.97
2022-08-05T08:45:17.947Z,25.78
2022-08-05T08:45:19.420Z,25.89
2022-08-05T08:45:47.383Z,25.90
2022-08-05T08:46:46.414Z,25.45
2022-08-05T08:48:06.089Z,25.66
2022-08-05T08:49:06.329Z,25.78
2022-08-05T08:50:05.841Z,26.17
2022-08-05T08:51:04.108Z,25.67
2022-08-05T08:52:04.127Z,25.11
2022-08-05T08:52:51.474Z,25.01
2022-08-05T08:53:46.299Z,25.56
2022-08-05T08:54:46.352Z,25.20
2022-08-05T08:56:04.750Z,25.29
2022-08-05T08:56:47.644Z,24.89
2022-08-05T08:57:58.110Z,24.97
2022-08-05T08:58:47.645Z,25.14
2022-08-05T08:59:47.264Z,25.11
2022-08-05T09:00:46.354Z,25.29
2022-08-05T09:01:46.283Z,25.02
2022-08-05T09:02:47.212Z,25.01
2022-08-05T09:03:46.213Z,24.99
2022-08-05T09:04:58.360Z,24.92
2022-08-05T09:06:08.789Z,25.12
2022-08-05T09:06:47.190Z,25.34
2022-08-05T09:07:57.437Z,25.57
2022-08-05T09:08:47.139Z,26.11
2022-08-05T09:09:46.138Z,26.31
2022-08-05T09:10:46.830Z,26.31
2022-08-05T09:11:52.477Z,26.54
2022-08-05T09:12:51.043Z,26.94
2022-08-05T09:14:09.396Z,26.83
2022-08-05T09:14:57.151Z,26.49
2022-08-05T09:15:47.065Z,26.32
2022-08-05T09:16:48.814Z,26.17
2022-08-05T09:17:49.477Z,26.44
2022-08-05T09:18:46.034Z,26.49
2022-08-05T09:19:55.414Z,26.73
2022-08-05T09:20:47.026Z,27.02
2022-08-05T09:22:18.479Z,26.38
2022-08-05T09:22:51.844Z,26.32
2022-08-05T09:23:46.985Z,25.85
2022-08-05T09:24:45.981Z,25.67
2022-08-05T09:26:01.137Z,25.96
2022-08-05T09:26:47.061Z,26.06
2022-08-05T09:28:04.564Z,25.69
2022-08-05T09:28:46.924Z,25.67
2022-08-05T09:29:47.650Z,26.31
2022-08-05T09:30:45.901Z,26.19
2022-08-05T09:32:40.193Z,25.45
2022-08-05T09:32:47.051Z,25.48
2022-08-05T09:33:45.866Z,25.66
2022-08-05T09:34:45.864Z,25.38
2022-08-05T09:35:45.871Z,25.12
2022-08-05T09:36:56.156Z,25.11
2022-08-05T09:38:17.423Z,24.89
2022-08-05T09:38:46.863Z,24.66
2022-08-05T09:39:52.417Z,24.70
2022-08-05T09:40:52.666Z,24.60
2022-08-05T09:41:46.784Z,24.55
2022-08-05T09:42:48.289Z,24.60
2022-08-05T09:43:45.809Z,24.56
2022-08-05T09:44:45.759Z,24.74
2022-08-05T09:46:06.357Z,24.63
2022-08-05T09:46:51.957Z,24.75
2022-08-05T09:47:56.062Z,24.68
2022-08-05T09:48:55.401Z,24.64
2022-08-05T09:49:54.822Z,24.67
2022-08-05T09:50:46.681Z,24.68
2022-08-05T09:51:49.418Z,24.82
2022-08-05T09:52:45.720Z,24.84
2022-08-05T09:53:54.691Z,24.84
2022-08-05T09:54:46.660Z,24.86
2022-08-05T09:55:58.062Z,24.83
2022-08-05T09:56:52.238Z,24.90
2022-08-05T09:57:46.814Z,24.92
2022-08-05T09:58:45.626Z,25.07
2022-08-05T09:59:45.614Z,25.16
2022-08-05T10:00:45.757Z,25.09
2022-08-05T10:01:46.382Z,24.99
2022-08-05T10:02:45.665Z,24.99
2022-08-05T10:03:58.519Z,25.17
2022-08-05T10:04:46.571Z,25.42
2022-08-05T10:05:45.529Z,26.03
2022-08-05T10:06:49.918Z,26.13
2022-08-05T10:08:10.349Z,26.28
2022-08-05T10:08:50.288Z,26.13
2022-08-05T10:09:46.504Z,25.81
2022-08-05T10:10:48.220Z,25.64
2022-08-05T10:11:45.478Z,26.01
2022-08-05T10:12:49.715Z,26.17
2022-08-05T10:13:48.189Z,26.12
2022-08-05T10:14:45.446Z,25.79
2022-08-05T10:15:45.432Z,25.39
2022-08-05T10:16:52.498Z,25.23
2022-08-05T10:17:56.620Z,25.26
2022-08-05T10:18:47.979Z,25.64
2022-08-05T10:20:04.337Z,26.01
2022-08-05T10:20:47.665Z,26.28
2022-08-05T10:21:45.353Z,26.32
2022-08-05T10:22:50.698Z,26.27
2022-08-05T10:23:59.947Z,26.03
2022-08-05T10:24:46.320Z,26.13
2022-08-05T10:25:45.332Z,26.32
2022-08-05T10:26:51.482Z,26.09
2022-08-05T10:28:13.166Z,25.94
2022-08-05T10:28:46.682Z,25.81
2022-08-05T10:30:41.191Z,25.78
2022-08-05T10:32:52.050Z,25.79
2022-08-05T10:32:54.430Z,25.79
2022-08-05T10:33:01.408Z,25.93
2022-08-05T10:33:46.232Z,25.90
2022-08-05T10:34:46.228Z,25.49
2022-08-05T10:35:48.433Z,25.22
2022-08-05T10:36:46.259Z,25.14
2022-08-05T10:37:45.308Z,25.11
2022-08-05T10:38:45.176Z,25.46
2022-08-05T10:40:04.019Z,25.12
2022-08-05T10:40:46.190Z,25.42
2022-08-05T10:41:47.057Z,25.72
2022-08-05T10:42:45.137Z,25.94
2022-08-05T10:43:45.127Z,25.83
2022-08-05T10:44:45.110Z,25.97
2022-08-05T10:45:45.106Z,25.82
2022-08-05T10:46:45.087Z,25.81
2022-08-05T10:47:47.095Z,25.46
2022-08-05T10:48:52.622Z,25.23
2022-08-05T10:49:48.711Z,25.51
2022-08-05T10:50:45.104Z,25.54
2022-08-05T10:51:57.567Z,25.36
2022-08-05T10:52:49.487Z,25.38
2022-08-05T10:53:45.390Z,25.54
2022-08-05T10:54:46.897Z,25.48
2022-08-05T10:56:05.403Z,25.48
2022-08-05T10:56:46.077Z,25.91
2022-08-05T10:57:44.990Z,25.60
2022-08-05T10:58:48.699Z,25.69
2022-08-05T11:00:02.841Z,25.67
2022-08-05T11:00:45.977Z,25.90
2022-08-05T11:01:55.601Z,25.78
2022-08-05T11:02:50.479Z,26.01
2022-08-05T11:03:45.963Z,25.96
2022-08-05T11:04:44.898Z,26.17
2022-08-05T11:05:44.876Z,26.64
2022-08-05T11:06:44.880Z,26.87
2022-08-05T11:08:01.105Z,27.11
2022-08-05T11:08:45.840Z,27.24
2022-08-05T11:09:46.120Z,27.46
2022-08-05T11:10:50.307Z,27.49
2022-08-05T11:11:52.659Z,27.34
2022-08-05T11:12:54.180Z,27.39
2022-08-05T11:13:57.538Z,27.69
2022-08-05T11:15:12.144Z,27.53
2022-08-05T11:16:00.192Z,27.35
2022-08-05T11:16:47.824Z,27.46
2022-08-05T11:18:07.419Z,27.50
2022-08-05T11:18:47.073Z,27.39
2022-08-05T11:20:17.375Z,27.33
2022-08-05T11:20:45.713Z,27.34
2022-08-05T11:21:49.568Z,27.06
2022-08-05T11:22:49.670Z,27.06
2022-08-05T11:24:02.955Z,26.90
2022-08-05T11:24:50.713Z,26.64
2022-08-05T11:26:04.942Z,26.23
2022-08-05T11:26:49.421Z,26.01
2022-08-05T11:27:51.906Z,25.85
2022-08-05T11:28:45.638Z,25.67
2022-08-05T11:29:44.632Z,25.82
2022-08-05T11:30:44.612Z,25.86
2022-08-05T11:31:57.500Z,25.67
2022-08-05T11:32:47.877Z,25.76
2022-08-05T11:33:48.020Z,25.64
2022-08-05T11:34:47.516Z,25.54
2022-08-05T11:36:07.753Z,25.59
2022-08-05T11:36:45.535Z,25.51
2022-08-05T11:38:29.693Z,25.53
2022-08-05T11:38:51.246Z,25.69
2022-08-05T11:39:48.051Z,25.61
2022-08-05T11:40:44.525Z,25.71
2022-08-05T11:42:01.203Z,25.66
2022-08-05T11:42:45.484Z,25.85
2022-08-05T11:44:05.439Z,25.66
2022-08-05T11:44:53.668Z,25.79
2022-08-05T11:46:27.075Z,25.91
2022-08-05T11:46:58.233Z,25.96
2022-08-05T11:47:49.383Z,25.96
2022-08-05T11:48:45.502Z,25.89
2022-08-05T11:49:51.171Z,25.85
2022-08-05T11:50:45.400Z,25.91
2022-08-05T11:51:49.777Z,25.71
2022-08-05T11:52:48.911Z,25.69
2022-08-05T11:53:44.368Z,25.64
2022-08-05T11:54:54.832Z,25.63
2022-08-05T11:55:45.348Z,25.71
2022-08-05T11:56:44.324Z,25.76
2022-08-05T11:58:09.811Z,25.78
2022-08-05T11:58:52.920Z,25.94
2022-08-05T11:59:50.354Z,26.04
2022-08-05T12:00:47.043Z,26.36
2022-08-05T12:01:45.285Z,26.46
2022-08-05T12:02:44.601Z,26.64
2022-08-05T12:03:44.251Z,26.86
2022-08-05T12:04:45.291Z,27.02
2022-08-05T12:05:45.282Z,27.15
2022-08-05T12:06:48.853Z,27.34
2022-08-05T12:08:08.752Z,27.15
2022-08-05T12:08:49.768Z,26.93
2022-08-05T12:09:53.178Z,27.06
2022-08-05T12:10:46.540Z,27.21
2022-08-05T12:11:44.183Z,27.45
2022-08-05T12:12:59.339Z,27.52
2022-08-05T12:13:48.998Z,27.74
2022-08-05T12:14:47.199Z,27.87
2022-08-05T12:15:44.121Z,28.21
2022-08-05T12:16:45.627Z,27.93
2022-08-05T12:18:04.084Z,27.68
2022-08-05T12:18:49.501Z,27.46
2022-08-05T12:20:16.979Z,27.24
2022-08-05T12:20:45.083Z,27.35
2022-08-05T12:21:44.095Z,27.49
2022-08-05T12:22:46.288Z,27.39
2022-08-05T12:23:44.092Z,27.63
2022-08-05T12:24:49.584Z,27.33
2022-08-05T12:25:45.021Z,27.18
2022-08-05T12:26:44.527Z,27.28
2022-08-05T12:27:53.191Z,26.94
2022-08-05T12:28:45.017Z,26.98
2022-08-05T12:29:43.974Z,27.28
2022-08-05T12:30:46.085Z,27.39
2022-08-05T12:31:48.106Z,27.18
2022-08-05T12:32:44.950Z,27.06
2022-08-05T12:33:44.970Z,27.01
2022-08-05T12:34:43.937Z,27.16
2022-08-05T12:35:43.899Z,27.34
2022-08-05T12:36:43.943Z,27.15
2022-08-05T12:37:43.876Z,26.97
2022-08-05T12:38:43.910Z,27.58
2022-08-05T12:39:44.000Z,27.95
2022-08-05T12:40:44.296Z,28.02
2022-08-05T12:41:44.154Z,28.13
2022-08-05T12:42:43.843Z,28.13
2022-08-05T12:43:43.832Z,27.72
2022-08-05T12:44:43.830Z,27.63
2022-08-05T12:45:49.550Z,27.53
2022-08-05T12:46:45.619Z,27.55
2022-08-05T12:48:17.039Z,27.61
2022-08-05T12:48:44.773Z,27.72
2022-08-05T12:50:03.316Z,27.71
2022-08-05T12:50:44.749Z,27.58
2022-08-05T12:52:13.942Z,27.83
2022-08-05T12:52:44.742Z,27.91
2022-08-05T12:53:43.713Z,28.11